レイキャビク/ケフラヴィーク の空港の天気 - METARとTAF

ケフラヴィーク国際空港 ( BIKF / KEF ) - アイスランド ケプラヴィーク
飛行場実況気象(Metar)
観測時間06/29 01:30 GMT (06/29 01:30 UTC)
風向・風速南南西 1m/s
視程10km以上
天気現象
少しの雲 雲底高度 270m
全天の8割程度の雲 雲底高度 730m
気温10℃
湿度76%
気圧1013hPa
METARBIKF 290130Z 20002KT 9999 FEW009 BKN024 10/06 Q1013
過去の天気等 Google飛行場航空写真 Wunderground天気予報

過去48時間のMETAR

飛行場予報(TAF)
発表時間: 6/28 22:10 GMT (6/28 22:10 UTC)
予報対象時間: 29日0時 GMT ~ 30日0時 GMT
風向・風速南西 6m/s
視程10km以上
全天の4割程度の雲 雲底高度 1,070m
29日0時 GMT ~ 29日20時 GMT に 確率 40% で一時的に
天気現象弱いしゅう雨
全天の4割程度の雲 雲底高度 460m
全天の8割程度の雲 雲底高度 670m
TAF BIKF 282210Z 2900/2924 22012KT 9999 SCT035 TX11/2914Z TN08/2906Z
PROB40 TEMPO 2900/2920 -SHRA SCT015 BKN022